sensor_id;sensor_type;location;lat;lon;timestamp;P1;durP1;ratioP1;P2;durP2;ratioP2
22111;SDS011;11222;50.872;4.312;2023-07-29T00:02:08;2.33;;;2.20;;
22111;SDS011;11222;50.872;4.312;2023-07-29T00:04:34;3.42;;;2.58;;
22111;SDS011;11222;50.872;4.312;2023-07-29T00:06:59;2.80;;;2.60;;
22111;SDS011;11222;50.872;4.312;2023-07-29T00:09:25;3.05;;;2.70;;
22111;SDS011;11222;50.872;4.312;2023-07-29T00:11:50;2.90;;;2.60;;
22111;SDS011;11222;50.872;4.312;2023-07-29T00:14:16;4.20;;;3.10;;
22111;SDS011;11222;50.872;4.312;2023-07-29T00:16:42;3.30;;;2.50;;
22111;SDS011;11222;50.872;4.312;2023-07-29T00:19:08;2.80;;;2.60;;
22111;SDS011;11222;50.872;4.312;2023-07-29T00:21:33;2.40;;;2.20;;
22111;SDS011;11222;50.872;4.312;2023-07-29T00:23:59;2.85;;;2.65;;
22111;SDS011;11222;50.872;4.312;2023-07-29T00:26:26;2.60;;;2.40;;
22111;SDS011;11222;50.872;4.312;2023-07-29T00:28:54;4.43;;;2.50;;
22111;SDS011;11222;50.872;4.312;2023-07-29T00:31:22;3.28;;;2.80;;
22111;SDS011;11222;50.872;4.312;2023-07-29T00:33:48;3.00;;;2.65;;
22111;SDS011;11222;50.872;4.312;2023-07-29T00:36:14;4.70;;;2.28;;
22111;SDS011;11222;50.872;4.312;2023-07-29T00:38:39;2.95;;;2.28;;
22111;SDS011;11222;50.872;4.312;2023-07-29T00:41:05;2.60;;;2.15;;
22111;SDS011;11222;50.872;4.312;2023-07-29T00:43:31;2.63;;;2.35;;
22111;SDS011;11222;50.872;4.312;2023-07-29T00:45:57;2.75;;;2.50;;
22111;SDS011;11222;50.872;4.312;2023-07-29T00:48:24;3.28;;;2.83;;
22111;SDS011;11222;50.872;4.312;2023-07-29T00:50:51;3.35;;;2.47;;
22111;SDS011;11222;50.872;4.312;2023-07-29T00:53:16;2.90;;;2.67;;
22111;SDS011;11222;50.872;4.312;2023-07-29T00:55:42;3.03;;;2.67;;
22111;SDS011;11222;50.872;4.312;2023-07-29T00:58:08;4.40;;;2.95;;
22111;SDS011;11222;50.872;4.312;2023-07-29T01:00:35;2.78;;;2.58;;
22111;SDS011;11222;50.872;4.312;2023-07-29T01:03:01;3.20;;;2.70;;
22111;SDS011;11222;50.872;4.312;2023-07-29T01:05:28;4.20;;;2.50;;
22111;SDS011;11222;50.872;4.312;2023-07-29T01:16:42;3.13;;;2.80;;
22111;SDS011;11222;50.872;4.312;2023-07-29T01:19:06;3.28;;;2.90;;
22111;SDS011;11222;50.872;4.312;2023-07-29T01:21:44;3.15;;;2.80;;
22111;SDS011;11222;50.872;4.312;2023-07-29T01:24:09;4.32;;;2.78;;
22111;SDS011;11222;50.872;4.312;2023-07-29T01:26:35;5.05;;;3.20;;
22111;SDS011;11222;50.872;4.312;2023-07-29T01:29:01;4.05;;;2.90;;
22111;SDS011;11222;50.872;4.312;2023-07-29T01:31:33;3.13;;;2.80;;
22111;SDS011;11222;50.872;4.312;2023-07-29T01:34:06;3.22;;;2.80;;
22111;SDS011;11222;50.872;4.312;2023-07-29T01:36:42;3.55;;;2.80;;
22111;SDS011;11222;50.872;4.312;2023-07-29T01:39:10;4.35;;;2.88;;
22111;SDS011;11222;50.872;4.312;2023-07-29T01:41:37;3.22;;;2.90;;
22111;SDS011;11222;50.872;4.312;2023-07-29T01:44:03;4.03;;;2.20;;
22111;SDS011;11222;50.872;4.312;2023-07-29T01:46:32;2.97;;;2.58;;
22111;SDS011;11222;50.872;4.312;2023-07-29T01:48:59;3.28;;;2.58;;
22111;SDS011;11222;50.872;4.312;2023-07-29T01:51:24;5.25;;;3.30;;
22111;SDS011;11222;50.872;4.312;2023-07-29T01:53:50;3.00;;;2.63;;
22111;SDS011;11222;50.872;4.312;2023-07-29T01:56:16;4.35;;;3.22;;
22111;SDS011;11222;50.872;4.312;2023-07-29T01:58:41;4.15;;;2.85;;
22111;SDS011;11222;50.872;4.312;2023-07-29T02:01:07;3.63;;;2.92;;
22111;SDS011;11222;50.872;4.312;2023-07-29T02:03:32;5.13;;;2.92;;
22111;SDS011;11222;50.872;4.312;2023-07-29T02:05:58;5.30;;;3.33;;
22111;SDS011;11222;50.872;4.312;2023-07-29T02:08:24;3.70;;;3.08;;
22111;SDS011;11222;50.872;4.312;2023-07-29T02:10:49;3.28;;;3.08;;
22111;SDS011;11222;50.872;4.312;2023-07-29T02:13:15;4.13;;;2.80;;
22111;SDS011;11222;50.872;4.312;2023-07-29T02:15:41;4.00;;;3.10;;
22111;SDS011;11222;50.872;4.312;2023-07-29T02:18:06;5.57;;;3.10;;
22111;SDS011;11222;50.872;4.312;2023-07-29T02:20:32;4.45;;;3.53;;
22111;SDS011;11222;50.872;4.312;2023-07-29T02:22:58;4.47;;;3.67;;
22111;SDS011;11222;50.872;4.312;2023-07-29T02:25:24;4.68;;;3.00;;
22111;SDS011;11222;50.872;4.312;2023-07-29T02:27:49;3.67;;;2.90;;
22111;SDS011;11222;50.872;4.312;2023-07-29T02:30:15;3.65;;;3.15;;
22111;SDS011;11222;50.872;4.312;2023-07-29T02:32:40;3.95;;;3.28;;
22111;SDS011;11222;50.872;4.312;2023-07-29T02:35:06;5.13;;;3.15;;
22111;SDS011;11222;50.872;4.312;2023-07-29T02:37:32;4.53;;;3.00;;
22111;SDS011;11222;50.872;4.312;2023-07-29T02:39:58;5.57;;;3.58;;
22111;SDS011;11222;50.872;4.312;2023-07-29T02:42:23;6.13;;;3.25;;
22111;SDS011;11222;50.872;4.312;2023-07-29T02:44:49;7.22;;;3.47;;
22111;SDS011;11222;50.872;4.312;2023-07-29T02:47:15;4.75;;;3.00;;
22111;SDS011;11222;50.872;4.312;2023-07-29T02:49:40;4.72;;;3.00;;
22111;SDS011;11222;50.872;4.312;2023-07-29T02:52:06;5.40;;;3.35;;
22111;SDS011;11222;50.872;4.312;2023-07-29T02:54:32;6.15;;;2.95;;
22111;SDS011;11222;50.872;4.312;2023-07-29T02:56:57;2.85;;;2.65;;
22111;SDS011;11222;50.872;4.312;2023-07-29T02:59:23;4.45;;;3.15;;
22111;SDS011;11222;50.872;4.312;2023-07-29T03:01:49;6.13;;;3.20;;
22111;SDS011;11222;50.872;4.312;2023-07-29T03:04:15;5.20;;;3.67;;
22111;SDS011;11222;50.872;4.312;2023-07-29T03:06:40;5.25;;;3.67;;
22111;SDS011;11222;50.872;4.312;2023-07-29T03:09:07;5.80;;;3.45;;
22111;SDS011;11222;50.872;4.312;2023-07-29T03:11:32;4.30;;;3.22;;
22111;SDS011;11222;50.872;4.312;2023-07-29T03:13:58;6.88;;;3.17;;
22111;SDS011;11222;50.872;4.312;2023-07-29T03:16:23;5.60;;;3.60;;
22111;SDS011;11222;50.872;4.312;2023-07-29T03:18:49;4.57;;;3.47;;
22111;SDS011;11222;50.872;4.312;2023-07-29T03:21:15;5.28;;;3.47;;
22111;SDS011;11222;50.872;4.312;2023-07-29T03:23:41;5.28;;;3.58;;
22111;SDS011;11222;50.872;4.312;2023-07-29T03:26:06;5.25;;;3.33;;
22111;SDS011;11222;50.872;4.312;2023-07-29T03:28:36;7.15;;;3.40;;
22111;SDS011;11222;50.872;4.312;2023-07-29T03:31:03;5.70;;;3.25;;
22111;SDS011;11222;50.872;4.312;2023-07-29T03:33:29;3.70;;;3.25;;
22111;SDS011;11222;50.872;4.312;2023-07-29T03:35:54;5.32;;;3.28;;
22111;SDS011;11222;50.872;4.312;2023-07-29T03:38:20;4.93;;;3.75;;
22111;SDS011;11222;50.872;4.312;2023-07-29T03:40:46;7.03;;;3.67;;
22111;SDS011;11222;50.872;4.312;2023-07-29T03:43:12;4.20;;;3.60;;
22111;SDS011;11222;50.872;4.312;2023-07-29T03:45:40;7.95;;;3.42;;
22111;SDS011;11222;50.872;4.312;2023-07-29T03:48:06;3.72;;;3.15;;
22111;SDS011;11222;50.872;4.312;2023-07-29T03:50:33;3.65;;;3.30;;
22111;SDS011;11222;50.872;4.312;2023-07-29T03:53:00;3.30;;;3.00;;
22111;SDS011;11222;50.872;4.312;2023-07-29T03:55:27;3.58;;;3.20;;
22111;SDS011;11222;50.872;4.312;2023-07-29T03:57:54;4.60;;;3.15;;
22111;SDS011;11222;50.872;4.312;2023-07-29T04:00:23;5.45;;;3.35;;
22111;SDS011;11222;50.872;4.312;2023-07-29T04:02:49;6.10;;;3.45;;
22111;SDS011;11222;50.872;4.312;2023-07-29T04:05:15;6.13;;;3.05;;
22111;SDS011;11222;50.872;4.312;2023-07-29T04:07:41;3.70;;;2.83;;
22111;SDS011;11222;50.872;4.312;2023-07-29T04:10:07;4.47;;;3.20;;
22111;SDS011;11222;50.872;4.312;2023-07-29T04:12:33;3.70;;;2.78;;
22111;SDS011;11222;50.872;4.312;2023-07-29T04:14:59;3.42;;;3.00;;
22111;SDS011;11222;50.872;4.312;2023-07-29T04:17:24;4.43;;;3.28;;
22111;SDS011;11222;50.872;4.312;2023-07-29T04:19:50;3.42;;;3.13;;
22111;SDS011;11222;50.872;4.312;2023-07-29T04:22:16;4.43;;;3.53;;
22111;SDS011;11222;50.872;4.312;2023-07-29T04:24:42;4.38;;;3.47;;
22111;SDS011;11222;50.872;4.312;2023-07-29T04:27:08;5.85;;;3.58;;
22111;SDS011;11222;50.872;4.312;2023-07-29T04:29:33;4.75;;;3.17;;
22111;SDS011;11222;50.872;4.312;2023-07-29T04:32:01;4.80;;;3.40;;
22111;SDS011;11222;50.872;4.312;2023-07-29T04:34:29;3.75;;;3.35;;
22111;SDS011;11222;50.872;4.312;2023-07-29T04:36:55;4.70;;;3.53;;
22111;SDS011;11222;50.872;4.312;2023-07-29T04:39:21;4.70;;;3.35;;
22111;SDS011;11222;50.872;4.312;2023-07-29T04:41:46;5.95;;;3.22;;
22111;SDS011;11222;50.872;4.312;2023-07-29T04:44:12;5.25;;;3.38;;
22111;SDS011;11222;50.872;4.312;2023-07-29T04:46:38;6.47;;;3.72;;
22111;SDS011;11222;50.872;4.312;2023-07-29T04:49:03;6.85;;;3.70;;
22111;SDS011;11222;50.872;4.312;2023-07-29T04:51:29;4.82;;;3.60;;
22111;SDS011;11222;50.872;4.312;2023-07-29T04:53:56;6.95;;;3.70;;
22111;SDS011;11222;50.872;4.312;2023-07-29T04:56:22;7.82;;;3.97;;
22111;SDS011;11222;50.872;4.312;2023-07-29T04:58:48;4.60;;;3.53;;
22111;SDS011;11222;50.872;4.312;2023-07-29T05:01:14;4.65;;;3.78;;
22111;SDS011;11222;50.872;4.312;2023-07-29T05:03:39;4.40;;;3.47;;
22111;SDS011;11222;50.872;4.312;2023-07-29T05:06:05;8.27;;;4.18;;
22111;SDS011;11222;50.872;4.312;2023-07-29T05:08:33;4.57;;;3.65;;
22111;SDS011;11222;50.872;4.312;2023-07-29T05:10:59;4.15;;;3.40;;
22111;SDS011;11222;50.872;4.312;2023-07-29T05:13:25;5.05;;;3.42;;
22111;SDS011;11222;50.872;4.312;2023-07-29T05:15:51;5.65;;;3.58;;
22111;SDS011;11222;50.872;4.312;2023-07-29T05:18:16;4.20;;;3.53;;
22111;SDS011;11222;50.872;4.312;2023-07-29T05:20:42;4.47;;;3.38;;
22111;SDS011;11222;50.872;4.312;2023-07-29T05:23:08;6.90;;;3.40;;
22111;SDS011;11222;50.872;4.312;2023-07-29T05:25:34;3.70;;;3.30;;
22111;SDS011;11222;50.872;4.312;2023-07-29T05:28:02;6.07;;;3.53;;
22111;SDS011;11222;50.872;4.312;2023-07-29T05:30:28;4.35;;;3.53;;
22111;SDS011;11222;50.872;4.312;2023-07-29T05:32:59;6.90;;;3.20;;
22111;SDS011;11222;50.872;4.312;2023-07-29T05:35:26;4.15;;;3.13;;
22111;SDS011;11222;50.872;4.312;2023-07-29T05:37:52;5.03;;;3.72;;
22111;SDS011;11222;50.872;4.312;2023-07-29T05:40:18;3.53;;;3.05;;
22111;SDS011;11222;50.872;4.312;2023-07-29T05:42:44;4.65;;;3.13;;
22111;SDS011;11222;50.872;4.312;2023-07-29T05:45:10;6.85;;;3.13;;
22111;SDS011;11222;50.872;4.312;2023-07-29T05:47:36;3.63;;;2.83;;
22111;SDS011;11222;50.872;4.312;2023-07-29T05:50:04;4.13;;;3.35;;
22111;SDS011;11222;50.872;4.312;2023-07-29T05:52:33;4.30;;;3.45;;
22111;SDS011;11222;50.872;4.312;2023-07-29T05:55:04;6.18;;;3.10;;
22111;SDS011;11222;50.872;4.312;2023-07-29T05:57:32;4.82;;;3.22;;
22111;SDS011;11222;50.872;4.312;2023-07-29T05:59:59;4.25;;;3.03;;
22111;SDS011;11222;50.872;4.312;2023-07-29T06:02:26;2.95;;;2.72;;
22111;SDS011;11222;50.872;4.312;2023-07-29T06:04:57;4.05;;;3.60;;
22111;SDS011;11222;50.872;4.312;2023-07-29T06:07:30;3.90;;;3.50;;
22111;SDS011;11222;50.872;4.312;2023-07-29T06:09:59;5.63;;;3.15;;
22111;SDS011;11222;50.872;4.312;2023-07-29T06:12:28;3.75;;;3.28;;
22111;SDS011;11222;50.872;4.312;2023-07-29T06:14:57;3.92;;;3.13;;
22111;SDS011;11222;50.872;4.312;2023-07-29T06:17:27;4.15;;;3.10;;
22111;SDS011;11222;50.872;4.312;2023-07-29T06:19:56;5.47;;;2.80;;
22111;SDS011;11222;50.872;4.312;2023-07-29T06:22:26;3.17;;;2.50;;
22111;SDS011;11222;50.872;4.312;2023-07-29T06:24:57;3.22;;;2.60;;
22111;SDS011;11222;50.872;4.312;2023-07-29T06:27:28;3.25;;;2.92;;
22111;SDS011;11222;50.872;4.312;2023-07-29T06:29:55;3.80;;;2.80;;
22111;SDS011;11222;50.872;4.312;2023-07-29T06:32:21;4.95;;;2.90;;
22111;SDS011;11222;50.872;4.312;2023-07-29T06:34:47;4.47;;;2.75;;
22111;SDS011;11222;50.872;4.312;2023-07-29T06:37:12;4.75;;;2.83;;
22111;SDS011;11222;50.872;4.312;2023-07-29T06:39:38;4.40;;;2.30;;
22111;SDS011;11222;50.872;4.312;2023-07-29T06:42:04;3.15;;;2.42;;
22111;SDS011;11222;50.872;4.312;2023-07-29T06:44:29;3.35;;;2.63;;
22111;SDS011;11222;50.872;4.312;2023-07-29T06:46:55;2.85;;;2.50;;
22111;SDS011;11222;50.872;4.312;2023-07-29T06:49:22;4.18;;;2.50;;
22111;SDS011;11222;50.872;4.312;2023-07-29T06:51:48;4.60;;;2.90;;
22111;SDS011;11222;50.872;4.312;2023-07-29T06:54:15;2.95;;;2.40;;
22111;SDS011;11222;50.872;4.312;2023-07-29T06:56:42;2.80;;;2.60;;
22111;SDS011;11222;50.872;4.312;2023-07-29T06:59:08;5.00;;;2.42;;
22111;SDS011;11222;50.872;4.312;2023-07-29T07:01:34;4.47;;;2.40;;
22111;SDS011;11222;50.872;4.312;2023-07-29T07:03:59;3.25;;;2.42;;
22111;SDS011;11222;50.872;4.312;2023-07-29T07:06:25;2.70;;;2.50;;
22111;SDS011;11222;50.872;4.312;2023-07-29T07:08:51;4.50;;;2.58;;
22111;SDS011;11222;50.872;4.312;2023-07-29T07:11:17;4.32;;;2.67;;
22111;SDS011;11222;50.872;4.312;2023-07-29T07:13:43;3.20;;;2.28;;
22111;SDS011;11222;50.872;4.312;2023-07-29T07:16:09;4.20;;;2.85;;
22111;SDS011;11222;50.872;4.312;2023-07-29T07:18:35;2.92;;;2.53;;
22111;SDS011;11222;50.872;4.312;2023-07-29T07:21:00;6.03;;;2.50;;
22111;SDS011;11222;50.872;4.312;2023-07-29T07:23:26;3.53;;;2.45;;
22111;SDS011;11222;50.872;4.312;2023-07-29T07:25:51;4.75;;;2.70;;
22111;SDS011;11222;50.872;4.312;2023-07-29T07:28:17;4.10;;;2.30;;
22111;SDS011;11222;50.872;4.312;2023-07-29T07:30:43;3.30;;;2.63;;
22111;SDS011;11222;50.872;4.312;2023-07-29T07:33:09;2.55;;;2.30;;
22111;SDS011;11222;50.872;4.312;2023-07-29T07:35:34;4.10;;;2.60;;
22111;SDS011;11222;50.872;4.312;2023-07-29T07:38:00;4.57;;;2.70;;
22111;SDS011;11222;50.872;4.312;2023-07-29T07:40:28;4.25;;;2.45;;
22111;SDS011;11222;50.872;4.312;2023-07-29T07:42:55;2.78;;;2.45;;
22111;SDS011;11222;50.872;4.312;2023-07-29T07:45:21;3.17;;;2.20;;
22111;SDS011;11222;50.872;4.312;2023-07-29T07:47:47;2.60;;;2.40;;
22111;SDS011;11222;50.872;4.312;2023-07-29T07:50:13;4.22;;;2.58;;
22111;SDS011;11222;50.872;4.312;2023-07-29T07:52:39;6.75;;;2.60;;
22111;SDS011;11222;50.872;4.312;2023-07-29T07:55:06;2.70;;;2.50;;
22111;SDS011;11222;50.872;4.312;2023-07-29T07:57:33;3.15;;;2.30;;
22111;SDS011;11222;50.872;4.312;2023-07-29T07:59:58;4.45;;;2.55;;
22111;SDS011;11222;50.872;4.312;2023-07-29T08:02:24;4.90;;;2.70;;
22111;SDS011;11222;50.872;4.312;2023-07-29T08:04:50;2.95;;;2.40;;
22111;SDS011;11222;50.872;4.312;2023-07-29T08:07:15;2.80;;;2.45;;
22111;SDS011;11222;50.872;4.312;2023-07-29T08:09:41;4.18;;;2.40;;
22111;SDS011;11222;50.872;4.312;2023-07-29T08:12:07;2.67;;;2.47;;
22111;SDS011;11222;50.872;4.312;2023-07-29T08:14:32;3.75;;;2.50;;
22111;SDS011;11222;50.872;4.312;2023-07-29T08:16:58;3.28;;;2.50;;
22111;SDS011;11222;50.872;4.312;2023-07-29T08:19:24;2.55;;;2.35;;
22111;SDS011;11222;50.872;4.312;2023-07-29T08:21:49;5.35;;;2.75;;
22111;SDS011;11222;50.872;4.312;2023-07-29T08:24:15;2.90;;;2.70;;
22111;SDS011;11222;50.872;4.312;2023-07-29T08:26:40;4.70;;;2.72;;
22111;SDS011;11222;50.872;4.312;2023-07-29T08:29:06;8.20;;;3.40;;
22111;SDS011;11222;50.872;4.312;2023-07-29T08:31:32;5.40;;;2.92;;
22111;SDS011;11222;50.872;4.312;2023-07-29T08:33:59;2.60;;;2.40;;
22111;SDS011;11222;50.872;4.312;2023-07-29T08:36:25;3.47;;;2.70;;
22111;SDS011;11222;50.872;4.312;2023-07-29T08:38:51;2.88;;;2.67;;
22111;SDS011;11222;50.872;4.312;2023-07-29T08:41:19;2.70;;;2.47;;
22111;SDS011;11222;50.872;4.312;2023-07-29T08:43:59;3.90;;;2.40;;
22111;SDS011;11222;50.872;4.312;2023-07-29T08:46:32;2.92;;;2.35;;
22111;SDS011;11222;50.872;4.312;2023-07-29T08:48:58;2.97;;;2.70;;
22111;SDS011;11222;50.872;4.312;2023-07-29T08:51:26;4.85;;;3.00;;
22111;SDS011;11222;50.872;4.312;2023-07-29T08:53:54;3.20;;;2.42;;
22111;SDS011;11222;50.872;4.312;2023-07-29T08:56:20;3.08;;;2.78;;
22111;SDS011;11222;50.872;4.312;2023-07-29T08:58:46;8.95;;;2.60;;
22111;SDS011;11222;50.872;4.312;2023-07-29T09:01:13;2.83;;;2.50;;
22111;SDS011;11222;50.872;4.312;2023-07-29T09:03:40;6.25;;;2.95;;
22111;SDS011;11222;50.872;4.312;2023-07-29T09:06:06;3.00;;;2.80;;
22111;SDS011;11222;50.872;4.312;2023-07-29T09:08:33;2.65;;;2.45;;
22111;SDS011;11222;50.872;4.312;2023-07-29T09:10:59;3.38;;;3.08;;
22111;SDS011;11222;50.872;4.312;2023-07-29T09:13:25;3.15;;;2.85;;
22111;SDS011;11222;50.872;4.312;2023-07-29T09:15:54;4.40;;;2.70;;
22111;SDS011;11222;50.872;4.312;2023-07-29T09:18:21;7.32;;;3.13;;
22111;SDS011;11222;50.872;4.312;2023-07-29T09:20:47;8.65;;;3.80;;
22111;SDS011;11222;50.872;4.312;2023-07-29T09:23:14;5.43;;;3.58;;
22111;SDS011;11222;50.872;4.312;2023-07-29T09:25:40;3.47;;;3.00;;
22111;SDS011;11222;50.872;4.312;2023-07-29T09:28:12;3.50;;;3.20;;
22111;SDS011;11222;50.872;4.312;2023-07-29T09:30:40;3.30;;;3.00;;
22111;SDS011;11222;50.872;4.312;2023-07-29T09:33:10;4.50;;;3.20;;
22111;SDS011;11222;50.872;4.312;2023-07-29T09:35:36;3.13;;;2.83;;
22111;SDS011;11222;50.872;4.312;2023-07-29T09:38:03;6.00;;;3.40;;
22111;SDS011;11222;50.872;4.312;2023-07-29T09:40:38;3.63;;;3.30;;
22111;SDS011;11222;50.872;4.312;2023-07-29T09:43:05;3.17;;;2.88;;
22111;SDS011;11222;50.872;4.312;2023-07-29T09:45:33;3.20;;;3.00;;
22111;SDS011;11222;50.872;4.312;2023-07-29T09:48:00;3.40;;;2.75;;
22111;SDS011;11222;50.872;4.312;2023-07-29T09:50:26;3.40;;;2.90;;
22111;SDS011;11222;50.872;4.312;2023-07-29T09:52:53;3.30;;;3.10;;
22111;SDS011;11222;50.872;4.312;2023-07-29T09:55:21;3.58;;;2.80;;
22111;SDS011;11222;50.872;4.312;2023-07-29T09:57:52;4.57;;;2.63;;
22111;SDS011;11222;50.872;4.312;2023-07-29T10:00:19;5.13;;;2.80;;
22111;SDS011;11222;50.872;4.312;2023-07-29T10:02:44;3.22;;;2.70;;
22111;SDS011;11222;50.872;4.312;2023-07-29T10:05:11;4.70;;;2.60;;
22111;SDS011;11222;50.872;4.312;2023-07-29T10:07:37;3.80;;;3.08;;
22111;SDS011;11222;50.872;4.312;2023-07-29T10:10:04;4.20;;;2.63;;
22111;SDS011;11222;50.872;4.312;2023-07-29T10:12:31;3.33;;;3.05;;
22111;SDS011;11222;50.872;4.312;2023-07-29T10:15:02;3.30;;;3.00;;
22111;SDS011;11222;50.872;4.312;2023-07-29T10:17:30;2.92;;;2.65;;
22111;SDS011;11222;50.872;4.312;2023-07-29T10:19:58;3.42;;;2.75;;
22111;SDS011;11222;50.872;4.312;2023-07-29T10:22:24;3.15;;;2.55;;
22111;SDS011;11222;50.872;4.312;2023-07-29T10:24:56;4.60;;;3.10;;
22111;SDS011;11222;50.872;4.312;2023-07-29T10:27:29;3.90;;;3.08;;
22111;SDS011;11222;50.872;4.312;2023-07-29T10:29:57;3.35;;;2.67;;
22111;SDS011;11222;50.872;4.312;2023-07-29T10:32:24;4.28;;;3.10;;
22111;SDS011;11222;50.872;4.312;2023-07-29T10:34:54;3.28;;;2.95;;
22111;SDS011;11222;50.872;4.312;2023-07-29T10:37:20;6.95;;;4.50;;
22111;SDS011;11222;50.872;4.312;2023-07-29T10:39:53;5.72;;;3.30;;
22111;SDS011;11222;50.872;4.312;2023-07-29T10:42:20;3.30;;;2.97;;
22111;SDS011;11222;50.872;4.312;2023-07-29T10:44:46;3.70;;;3.38;;
22111;SDS011;11222;50.872;4.312;2023-07-29T10:47:17;4.07;;;3.40;;
22111;SDS011;11222;50.872;4.312;2023-07-29T10:49:52;4.63;;;3.80;;
22111;SDS011;11222;50.872;4.312;2023-07-29T10:52:29;6.13;;;3.83;;
22111;SDS011;11222;50.872;4.312;2023-07-29T10:55:02;4.18;;;3.78;;
22111;SDS011;11222;50.872;4.312;2023-07-29T10:57:36;4.28;;;3.88;;
22111;SDS011;11222;50.872;4.312;2023-07-29T11:00:06;7.15;;;4.60;;
22111;SDS011;11222;50.872;4.312;2023-07-29T11:02:34;4.75;;;3.88;;
22111;SDS011;11222;50.872;4.312;2023-07-29T11:05:17;6.50;;;4.68;;
22111;SDS011;11222;50.872;4.312;2023-07-29T11:07:44;5.70;;;4.30;;
22111;SDS011;11222;50.872;4.312;2023-07-29T11:10:11;6.20;;;3.97;;
22111;SDS011;11222;50.872;4.312;2023-07-29T11:12:38;4.65;;;4.15;;
22111;SDS011;11222;50.872;4.312;2023-07-29T11:15:24;8.75;;;4.22;;
22111;SDS011;11222;50.872;4.312;2023-07-29T11:20:35;5.90;;;3.80;;
22111;SDS011;11222;50.872;4.312;2023-07-29T11:25:27;4.25;;;3.60;;
22111;SDS011;11222;50.872;4.312;2023-07-29T11:27:55;3.67;;;3.38;;
22111;SDS011;11222;50.872;4.312;2023-07-29T11:30:22;3.78;;;3.20;;
22111;SDS011;11222;50.872;4.312;2023-07-29T11:32:58;3.00;;;2.80;;
22111;SDS011;11222;50.872;4.312;2023-07-29T11:35:24;3.05;;;2.75;;
22111;SDS011;11222;50.872;4.312;2023-07-29T11:37:51;4.22;;;3.30;;
22111;SDS011;11222;50.872;4.312;2023-07-29T11:40:19;3.83;;;3.30;;
22111;SDS011;11222;50.872;4.312;2023-07-29T11:42:47;5.10;;;3.30;;
22111;SDS011;11222;50.872;4.312;2023-07-29T11:45:15;3.10;;;2.90;;
22111;SDS011;11222;50.872;4.312;2023-07-29T11:47:41;3.65;;;3.35;;
22111;SDS011;11222;50.872;4.312;2023-07-29T11:50:07;3.30;;;3.10;;
22111;SDS011;11222;50.872;4.312;2023-07-29T11:52:36;3.72;;;3.10;;
22111;SDS011;11222;50.872;4.312;2023-07-29T11:55:03;3.42;;;3.13;;
22111;SDS011;11222;50.872;4.312;2023-07-29T11:57:30;3.67;;;3.38;;
22111;SDS011;11222;50.872;4.312;2023-07-29T11:59:58;4.10;;;3.03;;
22111;SDS011;11222;50.872;4.312;2023-07-29T12:02:24;3.58;;;3.38;;
22111;SDS011;11222;50.872;4.312;2023-07-29T12:04:51;3.53;;;3.33;;
22111;SDS011;11222;50.872;4.312;2023-07-29T12:07:18;4.55;;;3.58;;
22111;SDS011;11222;50.872;4.312;2023-07-29T12:09:44;3.75;;;3.45;;
22111;SDS011;11222;50.872;4.312;2023-07-29T12:12:11;3.78;;;3.50;;
22111;SDS011;11222;50.872;4.312;2023-07-29T12:14:37;3.88;;;3.58;;
22111;SDS011;11222;50.872;4.312;2023-07-29T12:17:03;4.47;;;3.30;;
22111;SDS011;11222;50.872;4.312;2023-07-29T12:19:36;3.70;;;3.40;;
22111;SDS011;11222;50.872;4.312;2023-07-29T12:22:03;4.75;;;3.67;;
22111;SDS011;11222;50.872;4.312;2023-07-29T12:24:30;4.35;;;3.20;;
22111;SDS011;11222;50.872;4.312;2023-07-29T12:26:57;4.00;;;3.42;;
22111;SDS011;11222;50.872;4.312;2023-07-29T12:29:23;4.90;;;3.25;;
22111;SDS011;11222;50.872;4.312;2023-07-29T12:31:49;3.60;;;3.40;;
22111;SDS011;11222;50.872;4.312;2023-07-29T12:34:31;5.43;;;3.60;;
22111;SDS011;11222;50.872;4.312;2023-07-29T12:36:57;4.10;;;3.70;;
22111;SDS011;11222;50.872;4.312;2023-07-29T12:39:28;3.85;;;3.55;;
22111;SDS011;11222;50.872;4.312;2023-07-29T12:41:56;4.70;;;3.95;;
22111;SDS011;11222;50.872;4.312;2023-07-29T12:44:29;4.40;;;4.00;;
22111;SDS011;11222;50.872;4.312;2023-07-29T12:46:57;4.32;;;3.92;;
22111;SDS011;11222;50.872;4.312;2023-07-29T12:49:22;4.38;;;3.90;;
22111;SDS011;11222;50.872;4.312;2023-07-29T12:51:48;4.18;;;3.88;;
22111;SDS011;11222;50.872;4.312;2023-07-29T12:54:14;3.90;;;3.60;;
22111;SDS011;11222;50.872;4.312;2023-07-29T12:56:39;4.05;;;3.75;;
22111;SDS011;11222;50.872;4.312;2023-07-29T12:59:05;3.65;;;3.42;;
22111;SDS011;11222;50.872;4.312;2023-07-29T13:01:31;5.30;;;3.53;;
22111;SDS011;11222;50.872;4.312;2023-07-29T13:03:57;3.75;;;3.45;;
22111;SDS011;11222;50.872;4.312;2023-07-29T13:06:22;3.60;;;3.40;;
22111;SDS011;11222;50.872;4.312;2023-07-29T13:08:48;6.45;;;3.83;;
22111;SDS011;11222;50.872;4.312;2023-07-29T13:11:14;4.00;;;3.70;;
22111;SDS011;11222;50.872;4.312;2023-07-29T13:13:40;3.95;;;3.65;;
22111;SDS011;11222;50.872;4.312;2023-07-29T13:16:06;4.25;;;3.58;;
22111;SDS011;11222;50.872;4.312;2023-07-29T13:18:32;4.20;;;3.90;;
22111;SDS011;11222;50.872;4.312;2023-07-29T13:20:59;3.78;;;3.47;;
22111;SDS011;11222;50.872;4.312;2023-07-29T13:23:25;3.40;;;3.20;;
22111;SDS011;11222;50.872;4.312;2023-07-29T13:25:51;3.67;;;3.47;;
22111;SDS011;11222;50.872;4.312;2023-07-29T13:28:17;3.38;;;3.10;;
22111;SDS011;11222;50.872;4.312;2023-07-29T13:30:44;3.55;;;3.35;;
22111;SDS011;11222;50.872;4.312;2023-07-29T13:33:09;4.18;;;3.50;;
22111;SDS011;11222;50.872;4.312;2023-07-29T13:35:35;4.75;;;3.47;;
22111;SDS011;11222;50.872;4.312;2023-07-29T13:38:01;3.28;;;3.08;;
22111;SDS011;11222;50.872;4.312;2023-07-29T13:40:27;3.58;;;3.38;;
22111;SDS011;11222;50.872;4.312;2023-07-29T13:42:53;3.50;;;3.20;;
22111;SDS011;11222;50.872;4.312;2023-07-29T13:45:19;3.47;;;3.20;;
22111;SDS011;11222;50.872;4.312;2023-07-29T13:47:45;3.50;;;3.30;;
22111;SDS011;11222;50.872;4.312;2023-07-29T13:50:11;3.60;;;3.30;;
22111;SDS011;11222;50.872;4.312;2023-07-29T13:52:37;3.78;;;3.47;;
22111;SDS011;11222;50.872;4.312;2023-07-29T13:55:03;3.38;;;3.08;;
22111;SDS011;11222;50.872;4.312;2023-07-29T13:57:29;3.78;;;3.47;;
22111;SDS011;11222;50.872;4.312;2023-07-29T13:59:55;3.30;;;3.10;;
22111;SDS011;11222;50.872;4.312;2023-07-29T14:02:20;3.83;;;3.03;;
22111;SDS011;11222;50.872;4.312;2023-07-29T14:04:46;3.25;;;3.05;;
22111;SDS011;11222;50.872;4.312;2023-07-29T14:07:12;3.40;;;3.20;;
22111;SDS011;11222;50.872;4.312;2023-07-29T14:09:37;3.47;;;3.17;;
22111;SDS011;11222;50.872;4.312;2023-07-29T14:12:03;3.30;;;3.10;;
22111;SDS011;11222;50.872;4.312;2023-07-29T14:14:30;2.90;;;2.70;;
22111;SDS011;11222;50.872;4.312;2023-07-29T14:16:56;5.10;;;2.83;;
22111;SDS011;11222;50.872;4.312;2023-07-29T14:19:22;3.08;;;2.88;;
22111;SDS011;11222;50.872;4.312;2023-07-29T14:21:48;3.05;;;2.60;;
22111;SDS011;11222;50.872;4.312;2023-07-29T14:24:14;3.15;;;2.95;;
22111;SDS011;11222;50.872;4.312;2023-07-29T14:26:40;3.33;;;3.08;;
22111;SDS011;11222;50.872;4.312;2023-07-29T14:29:06;3.50;;;3.20;;
22111;SDS011;11222;50.872;4.312;2023-07-29T14:31:32;3.03;;;2.83;;
22111;SDS011;11222;50.872;4.312;2023-07-29T14:33:58;3.10;;;2.90;;
22111;SDS011;11222;50.872;4.312;2023-07-29T14:36:24;3.05;;;2.85;;
22111;SDS011;11222;50.872;4.312;2023-07-29T14:38:50;3.92;;;2.92;;
22111;SDS011;11222;50.872;4.312;2023-07-29T14:41:16;3.25;;;2.70;;
22111;SDS011;11222;50.872;4.312;2023-07-29T14:43:42;3.38;;;3.08;;
22111;SDS011;11222;50.872;4.312;2023-07-29T14:46:07;3.30;;;2.60;;
22111;SDS011;11222;50.872;4.312;2023-07-29T14:48:33;3.00;;;2.80;;
22111;SDS011;11222;50.872;4.312;2023-07-29T14:50:59;2.83;;;2.63;;
22111;SDS011;11222;50.872;4.312;2023-07-29T14:53:24;3.10;;;2.90;;
22111;SDS011;11222;50.872;4.312;2023-07-29T14:55:50;2.90;;;2.70;;
22111;SDS011;11222;50.872;4.312;2023-07-29T14:58:16;3.17;;;2.97;;
22111;SDS011;11222;50.872;4.312;2023-07-29T15:00:42;4.20;;;3.00;;